AIRPORT_AIRPORT_METAR
METAR FOR LFBP
ADDS - METARS form results

(0005 UTC 06 December 2019)
Data provider http://aviationweather.gov/metar/data/
 
METAR text: LFBP 060000Z AUTO 00000KT 4900 BR BKN008 BKN014 06/05 Q1024
Conditions at: LFBP (PONT-LONG-UZEIN/, FR) observed 0000 UTC 06 December 2019
Temperature: 6.0°C (43°F)
Dewpoint: 5.0°C (41°F) [RH = 93%]
Pressure (altimeter): 30.24 inches Hg (1024.0 mb)
Winds: calm
Visibility: 3 miles ( 5 km)
Ceiling: 800 feet AGL
Clouds: broken clouds at 800 feet AGL
broken clouds at 1400 feet AGL
Weather: BR  (mist)

METAR text: LFBP 052330Z AUTO 07001KT 5000 BR BKN008 OVC015 06/05 Q1024
Conditions at: LFBP (PONT-LONG-UZEIN/, FR) observed 2330 UTC 05 December 2019
Temperature: 6.0°C (43°F)
Dewpoint: 5.0°C (41°F) [RH = 93%]
Pressure (altimeter): 30.24 inches Hg (1024.0 mb)
Winds: from the ENE (70 degrees) at 1 MPH (1 knots; 0.5 m/s)
Visibility: 3 miles ( 5 km)
Ceiling: 800 feet AGL
Clouds: broken clouds at 800 feet AGL
overcast cloud deck at 1500 feet AGL
Weather: BR  (mist)

 AIRPORT_AIRPORT_MAP

 AIRPORT_RUNWAY_INFO
AIRPORT_RUNWAY 13 AIRPORT_RUNWAY_LENGTH 8202 ft AIRPORT_RUNWAY_WIDTH 148 ft
AIRPORT_RUNWAY_ELEVATION 581 ft AIRPORT_RUNWAY_THRESHOLD 0 ft AIRPORT_RUNWAY_HEADING 125
AIRPORT_RUNWAY 31 AIRPORT_RUNWAY_LENGTH 8202 ft AIRPORT_RUNWAY_WIDTH 148 ft
AIRPORT_RUNWAY_ELEVATION 616 ft AIRPORT_RUNWAY_THRESHOLD 0 ft AIRPORT_RUNWAY_HEADING 305

 AIRPORT_AIRPORT_FREQUENCIES
AIRPORT_AIRPORT_NAVAIDS_TYPE APP AIRPORT_AIRPORT_NAVAIDS_NAME PYRENEES A AIRPORT_AIRPORT_NAVAIDS_FREQ 121.175 MHZ
AIRPORT_AIRPORT_NAVAIDS_TYPE ATIS AIRPORT_AIRPORT_NAVAIDS_NAME ATIS AIRPORT_AIRPORT_NAVAIDS_FREQ 128.475 MHZ
AIRPORT_AIRPORT_NAVAIDS_TYPE GND AIRPORT_AIRPORT_NAVAIDS_NAME GND AIRPORT_AIRPORT_NAVAIDS_FREQ 121.75 MHZ
AIRPORT_AIRPORT_NAVAIDS_TYPE TWR AIRPORT_AIRPORT_NAVAIDS_NAME TWR AIRPORT_AIRPORT_NAVAIDS_FREQ 124.15 MHZ

 AIRPORT_AIRPORT_NAVAIDS



Copyright © 2005-2019 - Virtuel Air Alsace - Tous droits réservés